createdAt,value
2019-02-02T00:00:04.944Z,51.50
2019-02-02T00:01:04.929Z,49.20
2019-02-02T00:02:04.916Z,49.90
2019-02-02T00:03:04.907Z,49.50
2019-02-02T00:04:04.888Z,47.50
2019-02-02T00:05:04.897Z,49.40
2019-02-02T00:06:04.868Z,52.20
2019-02-02T00:07:04.867Z,51.10
2019-02-02T00:08:04.848Z,52.50
2019-02-02T00:09:04.834Z,49.40
2019-02-02T00:10:04.839Z,52.50
2019-02-02T00:11:04.849Z,50.80
2019-02-02T00:12:04.811Z,56.60
2019-02-02T00:13:04.793Z,55.40
2019-02-02T00:14:04.788Z,53.60
2019-02-02T00:15:04.773Z,55.90
2019-02-02T00:16:04.790Z,55.60
2019-02-02T00:17:04.752Z,54.20
2019-02-02T00:18:04.742Z,55.50
2019-02-02T00:19:04.737Z,53.60
2019-02-02T00:20:04.712Z,51.40
2019-02-02T00:21:04.717Z,56.40
2019-02-02T00:22:04.705Z,55.90
2019-02-02T00:23:04.700Z,59.70
2019-02-02T00:24:04.674Z,57.20
2019-02-02T00:25:04.660Z,59.00
2019-02-02T00:26:04.651Z,58.60
2019-02-02T00:27:04.645Z,57.60
2019-02-02T00:28:04.629Z,57.20
2019-02-02T00:29:04.614Z,57.40
2019-02-02T00:30:04.608Z,59.60
2019-02-02T00:31:04.593Z,60.80
2019-02-02T00:32:04.591Z,60.70
2019-02-02T00:33:04.575Z,55.90
2019-02-02T00:34:04.567Z,60.00
2019-02-02T00:35:04.548Z,61.20
2019-02-02T00:36:04.543Z,63.80
2019-02-02T00:37:04.535Z,60.20
2019-02-02T00:38:04.557Z,60.10
2019-02-02T00:39:04.511Z,61.00
2019-02-02T00:40:04.492Z,62.70
2019-02-02T00:41:04.483Z,62.70
2019-02-02T00:42:04.470Z,60.50
2019-02-02T00:43:04.463Z,61.50
2019-02-02T00:44:04.487Z,60.40
2019-02-02T00:45:04.443Z,61.10
2019-02-02T00:46:04.435Z,62.80
2019-02-02T00:47:04.416Z,64.90
2019-02-02T00:48:04.406Z,65.30
2019-02-02T00:49:04.407Z,60.90
2019-02-02T00:50:04.414Z,61.70
2019-02-02T00:51:04.391Z,61.30
2019-02-02T00:52:04.360Z,61.70
2019-02-02T00:53:04.350Z,59.40
2019-02-02T00:54:04.356Z,65.00
2019-02-02T00:55:04.332Z,62.20
2019-02-02T00:56:04.318Z,64.90
2019-02-02T00:57:04.312Z,65.70
2019-02-02T00:58:04.295Z,65.00
2019-02-02T00:59:04.299Z,60.70
2019-02-02T01:00:04.285Z,66.50
2019-02-02T01:01:04.277Z,65.20
2019-02-02T01:02:04.259Z,67.80
2019-02-02T01:03:04.248Z,67.80
2019-02-02T01:04:04.230Z,68.70
2019-02-02T01:05:04.255Z,67.40
2019-02-02T01:06:05.007Z,67.50
2019-02-02T01:07:04.197Z,67.50
2019-02-02T01:08:04.193Z,66.30
2019-02-02T01:09:04.176Z,69.90
2019-02-02T01:10:04.165Z,68.90
2019-02-02T01:11:04.207Z,67.00
2019-02-02T01:12:04.144Z,70.10
2019-02-02T01:13:04.217Z,71.00
2019-02-02T01:14:04.135Z,68.20
2019-02-02T01:15:04.120Z,73.00
2019-02-02T01:16:04.144Z,70.00
2019-02-02T01:17:04.096Z,73.00
2019-02-02T01:18:04.077Z,73.00
2019-02-02T01:19:04.069Z,71.60
2019-02-02T01:20:04.055Z,72.90
2019-02-02T01:21:04.051Z,69.70
2019-02-02T01:22:04.062Z,68.50
2019-02-02T01:23:04.025Z,70.40
2019-02-02T01:24:04.014Z,74.20
2019-02-02T01:25:04.005Z,73.20
2019-02-02T01:26:03.988Z,76.00
2019-02-02T01:27:04.034Z,76.30
2019-02-02T01:28:05.583Z,74.50
2019-02-02T01:29:03.958Z,73.60
2019-02-02T01:30:03.959Z,76.90
2019-02-02T01:31:03.938Z,77.20
2019-02-02T01:32:03.926Z,75.10
2019-02-02T01:33:03.950Z,76.10
2019-02-02T01:34:03.902Z,76.30
2019-02-02T01:35:03.890Z,80.50
2019-02-02T01:36:03.881Z,77.50
2019-02-02T01:37:03.867Z,74.90
2019-02-02T01:38:03.856Z,77.00
2019-02-02T01:39:03.854Z,79.50
2019-02-02T01:40:03.837Z,80.60
2019-02-02T01:41:03.823Z,76.70
2019-02-02T01:42:03.824Z,76.80
2019-02-02T01:43:03.816Z,77.70
2019-02-02T01:44:03.819Z,82.00
2019-02-02T01:45:03.781Z,79.90
2019-02-02T01:46:03.781Z,80.00
2019-02-02T01:47:03.758Z,82.60
2019-02-02T01:48:03.787Z,81.90
2019-02-02T01:49:03.759Z,80.80
2019-02-02T01:50:03.730Z,85.00
2019-02-02T01:51:03.718Z,85.20
2019-02-02T01:52:03.710Z,91.30
2019-02-02T01:53:03.699Z,128.00
2019-02-02T01:54:03.692Z,90.80
2019-02-02T01:55:03.697Z,82.50
2019-02-02T01:56:03.657Z,82.50
2019-02-02T01:57:03.664Z,88.60
2019-02-02T01:58:03.671Z,85.00
2019-02-02T01:59:03.636Z,85.90
2019-02-02T02:00:03.620Z,86.20
2019-02-02T02:01:03.661Z,86.70
2019-02-02T02:02:03.604Z,89.40
2019-02-02T02:03:03.583Z,88.30
2019-02-02T02:04:03.626Z,96.10
2019-02-02T02:05:03.559Z,85.00
2019-02-02T02:06:03.549Z,88.60
2019-02-02T02:07:03.550Z,91.10
2019-02-02T02:08:03.527Z,93.40
2019-02-02T02:09:03.527Z,97.30
2019-02-02T02:10:03.544Z,98.20
2019-02-02T02:11:03.512Z,93.90
2019-02-02T02:12:03.485Z,93.10
2019-02-02T02:13:03.472Z,90.80
2019-02-02T02:14:03.465Z,92.60
2019-02-02T02:15:03.488Z,93.50
2019-02-02T02:16:03.443Z,91.80
2019-02-02T02:17:03.433Z,90.70
2019-02-02T02:18:03.423Z,101.80
2019-02-02T02:19:03.410Z,95.30
2019-02-02T02:20:03.452Z,95.40
2019-02-02T02:21:03.389Z,95.30
2019-02-02T02:22:03.374Z,99.30
2019-02-02T02:23:03.363Z,97.80
2019-02-02T02:24:03.358Z,97.90
2019-02-02T02:25:03.379Z,102.00
2019-02-02T02:26:03.340Z,99.60
2019-02-02T02:27:03.325Z,95.00
2019-02-02T02:28:03.315Z,99.50
2019-02-02T02:29:03.304Z,100.90
2019-02-02T02:30:03.313Z,108.80
2019-02-02T02:31:03.276Z,103.30
2019-02-02T02:32:03.312Z,103.30
2019-02-02T02:33:03.264Z,102.20
2019-02-02T02:34:03.469Z,106.70
2019-02-02T02:35:03.239Z,102.70
2019-02-02T02:36:03.236Z,101.20
2019-02-02T02:37:04.155Z,104.80
2019-02-02T02:38:03.243Z,104.30
2019-02-02T02:39:03.190Z,103.50
2019-02-02T02:40:03.180Z,100.00
2019-02-02T02:41:03.168Z,104.80
2019-02-02T02:42:03.156Z,103.10
2019-02-02T02:43:03.159Z,105.30
2019-02-02T02:44:03.133Z,106.60
2019-02-02T02:45:03.121Z,103.60
2019-02-02T02:46:03.157Z,100.20
2019-02-02T02:47:03.107Z,105.30
2019-02-02T02:48:03.089Z,109.70
2019-02-02T02:49:03.082Z,101.90
2019-02-02T02:50:03.074Z,108.60
2019-02-02T02:51:03.060Z,103.60
2019-02-02T02:52:03.103Z,110.30
2019-02-02T02:53:03.043Z,108.00
2019-02-02T02:54:03.032Z,114.00
2019-02-02T02:55:03.023Z,107.50
2019-02-02T02:56:03.001Z,111.60
2019-02-02T02:57:02.996Z,109.30
2019-02-02T02:58:03.038Z,111.30
2019-02-02T02:59:02.971Z,118.10
2019-02-02T03:00:02.965Z,113.80
2019-02-02T03:01:02.945Z,107.60
2019-02-02T03:02:02.940Z,113.00
2019-02-02T03:03:02.980Z,116.10
2019-02-02T03:04:02.919Z,111.50
2019-02-02T03:05:02.907Z,113.30
2019-02-02T03:06:02.898Z,107.80
2019-02-02T03:07:02.880Z,107.70
2019-02-02T03:08:02.914Z,110.60
2019-02-02T03:09:02.858Z,118.50
2019-02-02T03:10:02.885Z,115.80
2019-02-02T03:11:02.863Z,110.30
2019-02-02T03:12:02.846Z,116.00
2019-02-02T03:13:02.820Z,114.20
2019-02-02T03:14:02.808Z,116.30
2019-02-02T03:15:02.881Z,121.10
2019-02-02T03:16:02.785Z,110.60
2019-02-02T03:17:02.772Z,113.50
2019-02-02T03:18:02.769Z,113.80
2019-02-02T03:19:02.752Z,116.10
2019-02-02T03:20:02.747Z,123.80
2019-02-02T03:21:02.875Z,119.60
2019-02-02T03:22:02.723Z,120.70
2019-02-02T03:23:02.707Z,118.10
2019-02-02T03:24:02.744Z,115.20
2019-02-02T03:25:02.690Z,112.80
2019-02-02T03:26:02.719Z,119.50
2019-02-02T03:27:02.667Z,115.30
2019-02-02T03:28:02.655Z,118.60
2019-02-02T03:29:02.644Z,117.10
2019-02-02T03:30:02.638Z,114.00
2019-02-02T03:31:02.670Z,111.50
2019-02-02T03:32:02.629Z,113.80
2019-02-02T03:33:02.596Z,121.00
2019-02-02T03:34:02.589Z,113.10
2019-02-02T03:35:02.572Z,118.90
2019-02-02T03:36:02.580Z,109.60
2019-02-02T03:37:02.548Z,113.80
2019-02-02T03:38:02.630Z,114.50
2019-02-02T03:39:02.543Z,111.40
2019-02-02T03:40:02.534Z,113.20
2019-02-02T03:41:02.533Z,109.30
2019-02-02T03:42:02.493Z,116.20
2019-02-02T03:43:02.496Z,111.50
2019-02-02T03:44:02.480Z,113.60
2019-02-02T03:45:02.463Z,117.80
2019-02-02T03:46:02.459Z,115.40
2019-02-02T03:47:02.477Z,120.50
2019-02-02T03:48:02.428Z,123.70
2019-02-02T03:49:02.418Z,120.80
2019-02-02T03:50:02.415Z,116.70
2019-02-02T03:51:02.400Z,112.30
2019-02-02T03:52:02.397Z,115.80
2019-02-02T03:53:02.399Z,116.50
2019-02-02T03:54:08.964Z,122.10
2019-02-02T03:55:03.383Z,124.70
2019-02-02T03:56:02.338Z,126.20
2019-02-02T03:57:02.339Z,122.50
2019-02-02T03:58:02.398Z,118.70
2019-02-02T03:59:06.746Z,123.90
2019-02-02T04:00:02.296Z,113.40
2019-02-02T04:01:02.295Z,120.90
2019-02-02T04:02:02.376Z,123.00
2019-02-02T04:03:02.275Z,122.40
2019-02-02T04:04:02.274Z,125.30
2019-02-02T04:05:02.238Z,120.40
2019-02-02T04:06:02.233Z,119.40
2019-02-02T04:07:02.221Z,117.80
2019-02-02T04:08:02.210Z,117.90
2019-02-02T04:09:02.251Z,116.60
2019-02-02T04:10:02.191Z,116.10
2019-02-02T04:11:02.172Z,124.10
2019-02-02T04:12:02.194Z,120.30
2019-02-02T04:13:02.155Z,120.80
2019-02-02T04:14:02.145Z,123.30
2019-02-02T04:15:02.142Z,118.60
2019-02-02T04:16:02.118Z,119.90
2019-02-02T04:17:02.107Z,120.30
2019-02-02T04:18:02.099Z,120.70
2019-02-02T04:19:02.088Z,115.20
2019-02-02T04:20:02.128Z,113.30
2019-02-02T04:21:02.080Z,116.80
2019-02-02T04:22:02.051Z,120.50
2019-02-02T04:23:02.040Z,117.70
2019-02-02T04:24:02.030Z,120.90
2019-02-02T04:25:02.206Z,122.10
2019-02-02T04:26:02.006Z,119.00
2019-02-02T04:27:02.002Z,116.00
2019-02-02T04:28:01.985Z,122.00
2019-02-02T04:29:01.976Z,118.80
2019-02-02T04:30:01.988Z,120.60
2019-02-02T04:31:01.986Z,116.00
2019-02-02T04:32:01.941Z,118.00
2019-02-02T04:33:01.938Z,125.60
2019-02-02T04:34:01.917Z,125.20
2019-02-02T04:35:01.908Z,122.30
2019-02-02T04:36:01.897Z,123.20
2019-02-02T04:37:01.891Z,117.50
2019-02-02T04:38:01.878Z,122.00
2019-02-02T04:39:01.871Z,120.70
2019-02-02T04:40:01.853Z,120.60
2019-02-02T04:41:01.887Z,126.90
2019-02-02T04:42:01.836Z,121.90
2019-02-02T04:43:02.037Z,120.20
2019-02-02T04:44:01.813Z,119.90
2019-02-02T04:45:01.797Z,112.50
2019-02-02T04:46:01.786Z,116.70
2019-02-02T04:47:01.800Z,115.60
2019-02-02T04:48:01.797Z,116.10
2019-02-02T04:49:01.753Z,117.90
2019-02-02T04:50:01.745Z,121.10
2019-02-02T04:51:01.743Z,116.70
2019-02-02T04:52:01.718Z,112.80
2019-02-02T04:53:01.732Z,114.70
2019-02-02T04:54:01.696Z,115.80
2019-02-02T04:55:01.695Z,117.20
2019-02-02T04:56:01.715Z,113.70
2019-02-02T04:57:01.663Z,117.90
2019-02-02T04:58:01.742Z,120.60
2019-02-02T04:59:01.649Z,119.10
2019-02-02T05:00:01.691Z,121.50
2019-02-02T05:01:01.640Z,116.20
2019-02-02T05:02:01.734Z,113.00
2019-02-02T05:03:01.652Z,115.10
2019-02-02T05:04:01.588Z,116.60
2019-02-02T05:05:01.584Z,111.30
2019-02-02T05:06:01.619Z,128.70
2019-02-02T05:07:01.552Z,115.80
2019-02-02T05:08:01.578Z,123.40
2019-02-02T05:09:01.532Z,117.90
2019-02-02T05:10:01.519Z,118.20
2019-02-02T05:11:01.519Z,122.10
2019-02-02T05:12:01.499Z,114.40
2019-02-02T05:13:01.490Z,124.10
2019-02-02T05:14:01.492Z,122.70
2019-02-02T05:15:01.463Z,123.50
2019-02-02T05:16:01.461Z,119.50
2019-02-02T05:17:01.443Z,119.00
2019-02-02T05:18:01.438Z,114.60
2019-02-02T05:19:01.469Z,114.80
2019-02-02T05:20:01.412Z,118.30
2019-02-02T05:21:01.405Z,120.10
2019-02-02T05:22:01.390Z,121.20
2019-02-02T05:23:01.379Z,122.10
2019-02-02T05:24:01.402Z,113.90
2019-02-02T05:25:01.373Z,117.60
2019-02-02T05:26:01.348Z,117.50
2019-02-02T05:27:01.335Z,116.70
2019-02-02T05:28:01.321Z,115.70
2019-02-02T05:29:01.314Z,119.70
2019-02-02T05:30:01.331Z,114.90
2019-02-02T05:31:01.305Z,117.70
2019-02-02T05:32:01.285Z,119.80
2019-02-02T05:33:01.263Z,120.60
2019-02-02T05:34:01.252Z,113.00
2019-02-02T05:35:01.247Z,114.00
2019-02-02T05:36:01.244Z,116.00
2019-02-02T05:37:01.222Z,120.40
2019-02-02T05:38:01.214Z,114.20
2019-02-02T05:39:01.199Z,114.60
2019-02-02T05:40:01.187Z,116.70
2019-02-02T05:41:01.194Z,118.10
2019-02-02T05:42:01.186Z,110.00
2019-02-02T05:43:01.157Z,116.60
2019-02-02T05:44:01.141Z,114.60
2019-02-02T05:45:01.134Z,111.50
2019-02-02T05:46:01.134Z,114.70
2019-02-02T05:47:01.115Z,115.40
2019-02-02T05:48:01.102Z,110.20
2019-02-02T05:49:01.091Z,112.70
2019-02-02T05:50:01.133Z,114.60
2019-02-02T05:51:01.099Z,117.20
2019-02-02T05:52:01.054Z,115.30
2019-02-02T05:53:01.044Z,116.70
2019-02-02T05:54:01.033Z,116.00
2019-02-02T05:55:01.025Z,115.50
2019-02-02T05:56:01.051Z,109.40
2019-02-02T05:57:01.002Z,117.10
2019-02-02T05:58:00.986Z,110.10
2019-02-02T05:59:00.976Z,114.40
2019-02-02T06:00:00.971Z,118.10
2019-02-02T06:01:00.990Z,115.90
2019-02-02T06:02:00.945Z,115.00
2019-02-02T06:03:00.937Z,116.60
2019-02-02T06:04:00.925Z,121.40
2019-02-02T06:05:00.914Z,118.30
2019-02-02T06:06:00.915Z,116.00
2019-02-02T06:07:00.892Z,118.40
2019-02-02T06:08:00.885Z,117.10
2019-02-02T06:09:00.869Z,106.60
2019-02-02T06:10:00.853Z,108.10
2019-02-02T06:11:00.899Z,113.80
2019-02-02T06:12:00.831Z,117.40
2019-02-02T06:13:00.831Z,112.80
2019-02-02T06:14:00.825Z,116.40
2019-02-02T06:15:00.854Z,110.10
2019-02-02T06:16:00.803Z,118.80
2019-02-02T06:17:00.832Z,110.80
2019-02-02T06:18:00.794Z,114.40
2019-02-02T06:19:00.755Z,106.80
2019-02-02T06:20:00.751Z,110.90
2019-02-02T06:21:00.739Z,112.00
2019-02-02T06:22:00.777Z,111.10
2019-02-02T06:23:00.711Z,111.90
2019-02-02T06:24:00.704Z,105.90
2019-02-02T06:25:00.693Z,113.70
2019-02-02T06:26:00.687Z,111.30
2019-02-02T06:27:00.705Z,111.90
2019-02-02T06:28:00.654Z,111.90
2019-02-02T06:29:00.644Z,115.80
2019-02-02T06:30:04.607Z,111.80
2019-02-02T06:31:00.621Z,110.70
2019-02-02T06:32:10.539Z,114.00
2019-02-02T06:33:01.640Z,113.80
2019-02-02T06:34:00.593Z,116.40
2019-02-02T06:35:00.599Z,107.10
2019-02-02T06:36:03.390Z,111.60
2019-02-02T06:37:00.558Z,105.60
2019-02-02T06:38:00.554Z,109.40
2019-02-02T06:39:00.577Z,110.10
2019-02-02T06:40:00.553Z,113.90
2019-02-02T06:41:00.517Z,115.60
2019-02-02T06:42:00.507Z,110.90
2019-02-02T06:43:00.488Z,109.70
2019-02-02T06:44:00.484Z,112.80
2019-02-02T06:45:00.480Z,115.80
2019-02-02T06:46:00.461Z,117.40
2019-02-02T06:47:00.449Z,112.80
2019-02-02T06:48:00.465Z,112.20
2019-02-02T06:49:01.552Z,116.50
2019-02-02T06:50:00.492Z,113.60
2019-02-02T06:51:00.407Z,115.80
2019-02-02T06:52:00.391Z,108.70
2019-02-02T06:53:00.380Z,114.40
2019-02-02T06:54:00.373Z,109.00
2019-02-02T06:55:00.472Z,115.10
2019-02-02T06:56:00.358Z,105.40
2019-02-02T06:57:00.341Z,113.00
2019-02-02T06:58:00.329Z,116.60
2019-02-02T06:59:00.315Z,111.90
2019-02-02T07:00:00.361Z,111.90
2019-02-02T07:01:00.297Z,110.60
2019-02-02T07:02:00.287Z,112.00
2019-02-02T07:03:00.269Z,117.40
2019-02-02T07:04:00.269Z,116.90
2019-02-02T07:05:00.320Z,110.30
2019-02-02T07:06:00.281Z,116.60
2019-02-02T07:07:00.225Z,109.30
2019-02-02T07:08:00.224Z,118.30
2019-02-02T07:09:00.209Z,114.10
2019-02-02T07:10:00.197Z,111.60
2019-02-02T07:11:00.181Z,112.20
2019-02-02T07:12:00.202Z,117.80
2019-02-02T07:13:00.159Z,116.40
2019-02-02T07:14:00.148Z,113.30
2019-02-02T07:15:00.687Z,116.90
2019-02-02T07:16:00.220Z,116.10
2019-02-02T07:17:00.124Z,118.10
2019-02-02T07:18:00.167Z,116.60
2019-02-02T07:19:00.095Z,116.70
2019-02-02T07:20:00.139Z,119.40
2019-02-02T07:21:00.070Z,108.30
2019-02-02T07:22:00.065Z,112.30
2019-02-02T07:23:00.066Z,115.90
2019-02-02T07:24:00.046Z,116.40
2019-02-02T07:25:00.049Z,117.30
2019-02-02T07:26:00.020Z,113.10
2019-02-02T07:27:00.007Z,115.60
2019-02-02T07:28:00.013Z,116.90
2019-02-02T07:28:59.988Z,118.90
2019-02-02T07:29:59.972Z,121.60
2019-02-02T07:30:59.986Z,116.20
2019-02-02T07:31:59.949Z,111.80
2019-02-02T07:32:59.981Z,115.20
2019-02-02T07:33:59.927Z,117.00
2019-02-02T07:34:59.917Z,115.00
2019-02-02T07:35:59.905Z,122.40
2019-02-02T07:36:59.894Z,127.60
2019-02-02T07:37:59.893Z,114.30
2019-02-02T07:38:59.890Z,114.30
2019-02-02T07:39:59.926Z,118.50
2019-02-02T07:40:59.860Z,114.80
2019-02-02T07:41:59.840Z,114.00
2019-02-02T07:42:59.834Z,111.70
2019-02-02T07:43:59.823Z,116.20
2019-02-02T07:44:59.845Z,119.00
2019-02-02T07:45:59.800Z,122.30
2019-02-02T07:46:59.785Z,115.20
2019-02-02T07:47:59.779Z,114.30
2019-02-02T07:48:59.762Z,113.00
2019-02-02T07:49:59.808Z,117.20
2019-02-02T07:50:59.747Z,123.60
2019-02-02T07:51:59.729Z,123.00
2019-02-02T07:52:59.724Z,116.10
2019-02-02T07:53:59.834Z,120.60
2019-02-02T07:54:59.701Z,118.20
2019-02-02T07:55:59.725Z,122.20
2019-02-02T07:56:59.681Z,123.90
2019-02-02T07:57:59.677Z,122.40
2019-02-02T07:58:59.657Z,116.70
2019-02-02T07:59:59.646Z,120.30
2019-02-02T08:00:59.631Z,109.40
2019-02-02T08:01:59.646Z,119.50
2019-02-02T08:03:00.193Z,119.90
2019-02-02T08:03:59.610Z,117.90
2019-02-02T08:04:59.652Z,118.60
2019-02-02T08:05:59.644Z,113.40
2019-02-02T08:06:59.566Z,123.50
2019-02-02T08:07:59.582Z,113.60
2019-02-02T08:08:59.549Z,121.20
2019-02-02T08:09:59.532Z,117.40
2019-02-02T08:10:59.526Z,118.30
2019-02-02T08:11:59.512Z,123.90
2019-02-02T08:12:59.522Z,111.80
2019-02-02T08:13:59.489Z,121.60
2019-02-02T08:14:59.483Z,112.70
2019-02-02T08:15:59.475Z,118.10
2019-02-02T08:16:59.458Z,114.10
2019-02-02T08:17:59.452Z,121.40
2019-02-02T08:18:59.449Z,117.90
2019-02-02T08:19:59.429Z,116.60
2019-02-02T08:20:59.420Z,123.70
2019-02-02T08:21:59.410Z,115.90
2019-02-02T08:22:59.404Z,127.50
2019-02-02T08:23:59.507Z,122.60
2019-02-02T08:24:59.375Z,118.30
2019-02-02T08:25:59.361Z,119.40
2019-02-02T08:26:59.346Z,121.40
2019-02-02T08:27:59.342Z,120.20
2019-02-02T08:28:59.341Z,122.00
2019-02-02T08:29:59.320Z,124.30
2019-02-02T08:30:59.316Z,119.70
2019-02-02T08:31:59.297Z,119.90
2019-02-02T08:32:59.299Z,121.00
2019-02-02T08:33:59.270Z,127.00
2019-02-02T08:34:59.280Z,121.70
2019-02-02T08:35:59.253Z,124.20
2019-02-02T08:36:59.251Z,128.10
2019-02-02T08:37:59.230Z,116.30
2019-02-02T08:39:00.210Z,122.50
2019-02-02T08:39:59.208Z,124.90
2019-02-02T08:40:59.201Z,118.70
2019-02-02T08:41:59.186Z,119.30
2019-02-02T08:42:59.177Z,122.40
2019-02-02T08:43:59.175Z,125.80
2019-02-02T08:44:59.148Z,122.00
2019-02-02T08:45:59.179Z,129.20
2019-02-02T08:46:59.133Z,125.60
2019-02-02T08:47:59.120Z,132.80
2019-02-02T08:48:59.693Z,133.70
2019-02-02T08:49:59.093Z,127.50
2019-02-02T08:50:59.085Z,130.20
2019-02-02T08:51:59.084Z,126.30
2019-02-02T08:52:59.067Z,131.30
2019-02-02T08:53:59.081Z,130.10
2019-02-02T08:54:59.055Z,128.60
2019-02-02T08:55:59.034Z,129.40
2019-02-02T08:56:59.027Z,131.30
2019-02-02T08:57:59.006Z,128.40
2019-02-02T08:58:59.001Z,128.60
2019-02-02T08:59:59.882Z,135.70
2019-02-02T09:01:04.063Z,130.60
2019-02-02T09:01:59.980Z,145.00
2019-02-02T09:02:58.959Z,132.30
2019-02-02T09:03:58.956Z,137.40
2019-02-02T09:04:59.000Z,136.10
2019-02-02T09:05:58.972Z,135.80
2019-02-02T09:06:58.913Z,135.60
2019-02-02T09:07:58.906Z,128.70
2019-02-02T09:08:58.891Z,138.40
2019-02-02T09:09:58.889Z,134.00
2019-02-02T09:10:58.878Z,124.00
2019-02-02T09:11:58.858Z,130.00
2019-02-02T09:12:58.841Z,118.90
2019-02-02T09:13:58.833Z,130.10
2019-02-02T09:14:58.820Z,126.00
2019-02-02T09:15:58.854Z,119.30
2019-02-02T09:16:58.798Z,126.00
2019-02-02T09:17:58.793Z,128.60
2019-02-02T09:18:58.780Z,126.80
2019-02-02T09:19:58.763Z,131.90
2019-02-02T09:20:58.753Z,115.30
2019-02-02T09:21:58.774Z,120.60
2019-02-02T09:23:05.955Z,127.70
2019-02-02T09:23:59.718Z,124.80
2019-02-02T09:24:58.709Z,124.40
2019-02-02T09:25:58.734Z,122.90
2019-02-02T09:26:58.690Z,123.10
2019-02-02T09:27:58.704Z,120.70
2019-02-02T09:28:58.671Z,111.40
2019-02-02T09:29:58.664Z,118.40
2019-02-02T09:30:58.648Z,119.40
2019-02-02T09:31:58.632Z,119.40
2019-02-02T09:32:58.647Z,121.00
2019-02-02T09:33:58.658Z,115.60
2019-02-02T09:34:58.607Z,123.80
2019-02-02T09:35:58.594Z,121.50
2019-02-02T09:36:58.583Z,126.90
2019-02-02T09:37:58.566Z,125.40
2019-02-02T09:38:58.560Z,125.00
2019-02-02T09:39:58.555Z,124.10
2019-02-02T09:40:58.537Z,124.90
2019-02-02T09:41:58.529Z,121.00
2019-02-02T09:42:58.525Z,122.70
2019-02-02T09:43:58.506Z,129.30
2019-02-02T09:44:58.499Z,124.10
2019-02-02T09:45:58.534Z,124.40
2019-02-02T09:46:58.470Z,124.80
2019-02-02T09:47:58.457Z,111.70
2019-02-02T09:48:58.448Z,122.00
2019-02-02T09:49:58.440Z,120.50
2019-02-02T09:50:58.437Z,115.90
2019-02-02T09:51:58.420Z,118.00
2019-02-02T09:52:58.413Z,122.40
2019-02-02T09:53:58.395Z,120.10
2019-02-02T09:54:58.379Z,121.80
2019-02-02T09:55:58.392Z,128.10
2019-02-02T09:56:58.362Z,123.90
2019-02-02T09:57:58.353Z,126.90
2019-02-02T09:58:59.197Z,126.20
2019-02-02T09:59:58.333Z,124.10
2019-02-02T10:00:58.312Z,127.20
2019-02-02T10:01:58.310Z,123.80
2019-02-02T10:02:58.296Z,130.30
2019-02-02T10:03:58.290Z,123.80
2019-02-02T10:04:58.279Z,129.10
2019-02-02T10:05:58.258Z,122.90
2019-02-02T10:06:58.275Z,123.20
2019-02-02T10:07:58.236Z,120.30
2019-02-02T10:08:58.229Z,122.20
2019-02-02T10:09:58.217Z,125.20
2019-02-02T10:10:58.202Z,133.80
2019-02-02T10:11:58.204Z,122.30
2019-02-02T10:12:58.199Z,126.90
2019-02-02T10:13:58.168Z,128.90
2019-02-02T10:14:58.157Z,127.00
2019-02-02T10:15:58.152Z,125.80
2019-02-02T10:16:58.140Z,121.30
2019-02-02T10:17:58.141Z,123.00
2019-02-02T10:18:58.149Z,124.80
2019-02-02T10:19:58.106Z,127.50
2019-02-02T10:21:04.107Z,126.30
2019-02-02T10:21:59.081Z,133.20
2019-02-02T10:22:58.113Z,131.40
2019-02-02T10:23:58.058Z,132.30
2019-02-02T10:24:58.052Z,128.50
2019-02-02T10:25:58.040Z,126.50
2019-02-02T10:26:58.030Z,128.60
2019-02-02T10:27:58.013Z,134.10
2019-02-02T10:28:58.105Z,124.00
2019-02-02T10:29:57.997Z,119.30
2019-02-02T10:30:57.982Z,120.60
2019-02-02T10:31:57.974Z,120.10
2019-02-02T10:32:57.963Z,117.20
2019-02-02T10:33:57.967Z,117.30
2019-02-02T10:34:58.028Z,118.20
2019-02-02T10:35:58.086Z,124.00
2019-02-02T10:36:57.914Z,124.00
2019-02-02T10:37:57.906Z,122.70
2019-02-02T10:38:57.906Z,128.20
2019-02-02T10:39:57.892Z,123.30
2019-02-02T10:40:57.886Z,125.50
2019-02-02T10:41:57.874Z,126.00
2019-02-02T10:42:57.853Z,130.70
2019-02-02T10:43:57.838Z,120.40
2019-02-02T10:44:57.945Z,122.00
2019-02-02T10:45:57.825Z,125.30
2019-02-02T10:46:57.804Z,129.10
2019-02-02T10:47:57.807Z,120.40
2019-02-02T10:48:57.785Z,125.10
2019-02-02T10:49:57.781Z,120.30
2019-02-02T10:50:58.292Z,119.30
2019-02-02T10:51:57.750Z,120.30
2019-02-02T10:52:57.738Z,121.10
2019-02-02T10:53:57.729Z,126.30
2019-02-02T10:54:57.716Z,130.30
2019-02-02T10:55:57.720Z,125.20
2019-02-02T10:56:57.697Z,129.30
2019-02-02T10:57:57.690Z,124.80
2019-02-02T10:58:57.674Z,120.50
2019-02-02T10:59:57.661Z,134.20
2019-02-02T11:00:57.718Z,122.50
2019-02-02T11:01:57.647Z,128.50
2019-02-02T11:02:57.628Z,135.20
2019-02-02T11:03:57.623Z,123.60
2019-02-02T11:04:57.629Z,120.40
2019-02-02T11:05:57.653Z,123.30
2019-02-02T11:06:57.603Z,126.00
2019-02-02T11:07:57.591Z,123.10
2019-02-02T11:08:57.742Z,118.80
2019-02-02T11:09:57.659Z,126.20
2019-02-02T11:10:58.202Z,124.50
2019-02-02T11:11:57.644Z,129.80
2019-02-02T11:12:57.619Z,126.30
2019-02-02T11:13:57.560Z,123.40
2019-02-02T11:14:57.502Z,132.70
2019-02-02T11:15:57.524Z,133.30
2019-02-02T11:16:57.513Z,126.00
2019-02-02T11:17:57.608Z,125.10
2019-02-02T11:18:57.462Z,128.80
2019-02-02T11:19:57.459Z,131.20
2019-02-02T11:20:57.698Z,133.60
2019-02-02T11:21:57.425Z,128.20
2019-02-02T11:22:57.421Z,127.50
2019-02-02T11:23:57.509Z,133.00
2019-02-02T11:24:57.464Z,126.90
2019-02-02T11:25:57.532Z,133.60
2019-02-02T11:26:57.502Z,133.90
2019-02-02T11:27:57.462Z,133.80
2019-02-02T11:28:57.383Z,131.30
2019-02-02T11:29:57.490Z,133.40
2019-02-02T11:30:57.324Z,124.80
2019-02-02T11:32:02.850Z,130.50
2019-02-02T11:32:58.308Z,128.80
2019-02-02T11:33:57.285Z,132.70
2019-02-02T11:34:57.276Z,133.30
2019-02-02T11:35:57.276Z,130.10
2019-02-02T11:36:57.259Z,128.30
2019-02-02T11:37:57.298Z,128.20
2019-02-02T11:38:59.458Z,132.70
2019-02-02T11:39:57.225Z,130.30
2019-02-02T11:40:57.215Z,136.20
2019-02-02T11:41:57.199Z,129.30
2019-02-02T11:42:57.188Z,141.20
2019-02-02T11:43:57.226Z,138.60
2019-02-02T11:44:57.185Z,136.90
2019-02-02T11:45:57.158Z,133.80
2019-02-02T11:46:57.146Z,141.40
2019-02-02T11:47:57.132Z,136.40
2019-02-02T11:48:57.126Z,138.60
2019-02-02T11:49:57.126Z,137.70
2019-02-02T11:50:57.100Z,141.10
2019-02-02T11:51:57.087Z,136.70
2019-02-02T11:52:57.083Z,135.00
2019-02-02T11:53:57.069Z,136.20
2019-02-02T11:54:57.064Z,132.90
2019-02-02T11:55:57.049Z,136.30
2019-02-02T11:56:57.034Z,135.30
2019-02-02T11:57:57.034Z,130.70
2019-02-02T11:58:57.015Z,129.10
2019-02-02T11:59:57.013Z,135.60
2019-02-02T12:00:57.016Z,135.10
2019-02-02T12:01:56.985Z,137.60
2019-02-02T12:02:56.974Z,146.50
2019-02-02T12:03:56.956Z,135.70
2019-02-02T12:04:56.993Z,133.00
2019-02-02T12:05:56.940Z,135.30
2019-02-02T12:06:56.928Z,144.30
2019-02-02T12:07:56.912Z,145.50
2019-02-02T12:08:56.912Z,139.50
2019-02-02T12:09:56.890Z,140.10
2019-02-02T12:10:56.888Z,137.30
2019-02-02T12:11:56.866Z,134.40
2019-02-02T12:12:56.881Z,138.30
2019-02-02T12:13:56.852Z,136.20
2019-02-02T12:14:57.127Z,137.80
2019-02-02T12:15:56.838Z,135.60
2019-02-02T12:16:56.842Z,138.40
2019-02-02T12:17:56.803Z,132.00
2019-02-02T12:18:56.796Z,131.80
2019-02-02T12:19:56.782Z,133.70
2019-02-02T12:20:56.767Z,138.90
2019-02-02T12:21:56.764Z,142.60
2019-02-02T12:22:56.757Z,135.40
2019-02-02T12:23:56.733Z,135.00
2019-02-02T12:24:56.724Z,137.30
2019-02-02T12:25:56.717Z,146.60
2019-02-02T12:26:56.702Z,139.80
2019-02-02T12:27:56.720Z,136.50
2019-02-02T12:28:56.685Z,151.90
2019-02-02T12:29:57.917Z,141.90
2019-02-02T12:30:56.664Z,143.20
2019-02-02T12:31:56.645Z,140.00
2019-02-02T12:32:56.636Z,134.60